Alton, Iowa
Current Conditions -  °F | °C
As of 7:55 AM on Saturday 22 Nov 2014 (Local Time) from KORC Reporting Station
Moderate Fog Moderate Fog  
Wind Chill: 28°   Ceiling: 100
Heat Index: 36°   Visibility: 0.25mi
Dew Point: 34°   Wind: 10mph
Humidity: 93%   Direction: 210°SSW
Pressure: 29.78"   Gusts: NA
Location:  42.99°N, 96.01°W
Report Text: KORC 221355Z AUTO 21009KT 1/4SM FG OVC001 02/01 A2978 RMK AO2
Loading
Personal Weather Stations






























Interactive Weather Map New forecast layout! Learn more

10-Day Weather Forecast

Advertisements
Track Severe Weather on mobile